sensor_id;sensor_type;location;lat;lon;timestamp;P1;durP1;ratioP1;P2;durP2;ratioP2
10523;SDS011;5310;48.638;9.060;2023-07-08T00:01:34;2.57;;;1.80;;
10523;SDS011;5310;48.638;9.060;2023-07-08T00:04:00;3.10;;;1.97;;
10523;SDS011;5310;48.638;9.060;2023-07-08T00:06:29;1.97;;;1.47;;
10523;SDS011;5310;48.638;9.060;2023-07-08T00:08:55;2.00;;;1.50;;
10523;SDS011;5310;48.638;9.060;2023-07-08T00:11:21;1.97;;;1.53;;
10523;SDS011;5310;48.638;9.060;2023-07-08T00:55:57;1.77;;;1.63;;
10523;SDS011;5310;48.638;9.060;2023-07-08T00:58:29;1.87;;;1.53;;
10523;SDS011;5310;48.638;9.060;2023-07-08T01:00:58;1.73;;;1.50;;
10523;SDS011;5310;48.638;9.060;2023-07-08T01:03:25;1.57;;;1.47;;
10523;SDS011;5310;48.638;9.060;2023-07-08T01:25:30;1.37;;;1.27;;
10523;SDS011;5310;48.638;9.060;2023-07-08T01:27:56;1.50;;;1.40;;
10523;SDS011;5310;48.638;9.060;2023-07-08T01:32:49;1.60;;;1.50;;
10523;SDS011;5310;48.638;9.060;2023-07-08T01:35:15;1.87;;;1.73;;
10523;SDS011;5310;48.638;9.060;2023-07-08T01:37:43;1.50;;;1.40;;
10523;SDS011;5310;48.638;9.060;2023-07-08T01:42:44;1.50;;;1.40;;
10523;SDS011;5310;48.638;9.060;2023-07-08T01:45:11;1.20;;;1.20;;
10523;SDS011;5310;48.638;9.060;2023-07-08T01:47:39;1.60;;;1.50;;
10523;SDS011;5310;48.638;9.060;2023-07-08T01:50:06;1.10;;;1.10;;
10523;SDS011;5310;48.638;9.060;2023-07-08T01:52:34;1.63;;;1.53;;
10523;SDS011;5310;48.638;9.060;2023-07-08T01:55:00;1.70;;;1.60;;
10523;SDS011;5310;48.638;9.060;2023-07-08T01:57:26;2.03;;;1.80;;
10523;SDS011;5310;48.638;9.060;2023-07-08T01:59:52;1.93;;;1.70;;
10523;SDS011;5310;48.638;9.060;2023-07-08T02:02:18;1.80;;;1.60;;
10523;SDS011;5310;48.638;9.060;2023-07-08T02:04:43;1.10;;;1.10;;
10523;SDS011;5310;48.638;9.060;2023-07-08T02:07:09;1.50;;;1.40;;
10523;SDS011;5310;48.638;9.060;2023-07-08T02:09:35;1.50;;;1.40;;
10523;SDS011;5310;48.638;9.060;2023-07-08T02:14:27;1.50;;;1.40;;
10523;SDS011;5310;48.638;9.060;2023-07-08T02:16:53;1.63;;;1.53;;
10523;SDS011;5310;48.638;9.060;2023-07-08T02:19:19;2.00;;;1.80;;
10523;SDS011;5310;48.638;9.060;2023-07-08T02:24:12;2.07;;;1.80;;
10523;SDS011;5310;48.638;9.060;2023-07-08T02:26:41;1.80;;;1.70;;
10523;SDS011;5310;48.638;9.060;2023-07-08T02:29:07;1.60;;;1.50;;
10523;SDS011;5310;48.638;9.060;2023-07-08T02:33:59;1.60;;;1.50;;
10523;SDS011;5310;48.638;9.060;2023-07-08T02:36:27;1.67;;;1.57;;
10523;SDS011;5310;48.638;9.060;2023-07-08T02:38:53;1.53;;;1.43;;
10523;SDS011;5310;48.638;9.060;2023-07-08T02:41:18;2.00;;;1.80;;
10523;SDS011;5310;48.638;9.060;2023-07-08T02:43:44;1.70;;;1.60;;
10523;SDS011;5310;48.638;9.060;2023-07-08T02:46:10;1.60;;;1.50;;
10523;SDS011;5310;48.638;9.060;2023-07-08T02:48:36;1.60;;;1.50;;
10523;SDS011;5310;48.638;9.060;2023-07-08T02:51:03;1.70;;;1.60;;
10523;SDS011;5310;48.638;9.060;2023-07-08T02:53:29;2.00;;;1.80;;
10523;SDS011;5310;48.638;9.060;2023-07-08T02:58:21;2.00;;;1.80;;
10523;SDS011;5310;48.638;9.060;2023-07-08T03:03:12;2.13;;;1.87;;
10523;SDS011;5310;48.638;9.060;2023-07-08T03:05:41;2.10;;;1.80;;
10523;SDS011;5310;48.638;9.060;2023-07-08T03:08:07;1.60;;;1.50;;
10523;SDS011;5310;48.638;9.060;2023-07-08T03:12:59;2.00;;;1.80;;
10523;SDS011;5310;48.638;9.060;2023-07-08T03:15:25;1.70;;;1.50;;
10523;SDS011;5310;48.638;9.060;2023-07-08T03:17:51;1.40;;;1.30;;
10523;SDS011;5310;48.638;9.060;2023-07-08T03:20:24;1.93;;;1.80;;
10523;SDS011;5310;48.638;9.060;2023-07-08T03:22:50;1.50;;;1.40;;
10523;SDS011;5310;48.638;9.060;2023-07-08T03:25:16;1.45;;;1.35;;
10523;SDS011;5310;48.638;9.060;2023-07-08T03:27:44;1.50;;;1.40;;
10523;SDS011;5310;48.638;9.060;2023-07-08T03:30:10;1.80;;;1.70;;
10523;SDS011;5310;48.638;9.060;2023-07-08T03:35:02;1.50;;;1.40;;
10523;SDS011;5310;48.638;9.060;2023-07-08T03:37:28;1.10;;;1.10;;
10523;SDS011;5310;48.638;9.060;2023-07-08T03:39:54;1.53;;;1.43;;
10523;SDS011;5310;48.638;9.060;2023-07-08T03:42:20;1.30;;;1.20;;
10523;SDS011;5310;48.638;9.060;2023-07-08T03:44:46;1.50;;;1.40;;
10523;SDS011;5310;48.638;9.060;2023-07-08T03:47:12;1.50;;;1.40;;
10523;SDS011;5310;48.638;9.060;2023-07-08T03:52:03;1.57;;;1.47;;
10523;SDS011;5310;48.638;9.060;2023-07-08T03:54:29;1.77;;;1.60;;
10523;SDS011;5310;48.638;9.060;2023-07-08T03:56:55;1.50;;;1.40;;
10523;SDS011;5310;48.638;9.060;2023-07-08T03:59:21;1.63;;;1.53;;
10523;SDS011;5310;48.638;9.060;2023-07-08T04:04:13;1.40;;;1.30;;
10523;SDS011;5310;48.638;9.060;2023-07-08T04:06:40;1.50;;;1.40;;
10523;SDS011;5310;48.638;9.060;2023-07-08T04:09:06;1.60;;;1.50;;
10523;SDS011;5310;48.638;9.060;2023-07-08T04:11:32;1.83;;;1.70;;
10523;SDS011;5310;48.638;9.060;2023-07-08T04:13:58;2.03;;;1.70;;
10523;SDS011;5310;48.638;9.060;2023-07-08T04:16:26;1.50;;;1.40;;
10523;SDS011;5310;48.638;9.060;2023-07-08T04:18:54;1.40;;;1.30;;
10523;SDS011;5310;48.638;9.060;2023-07-08T04:21:20;1.90;;;1.30;;
10523;SDS011;5310;48.638;9.060;2023-07-08T04:23:46;1.17;;;1.10;;
10523;SDS011;5310;48.638;9.060;2023-07-08T04:26:12;1.53;;;1.40;;
10523;SDS011;5310;48.638;9.060;2023-07-08T04:28:38;1.50;;;1.40;;
10523;SDS011;5310;48.638;9.060;2023-07-08T04:33:30;1.33;;;1.23;;
10523;SDS011;5310;48.638;9.060;2023-07-08T04:35:56;1.70;;;1.50;;
10523;SDS011;5310;48.638;9.060;2023-07-08T04:38:23;1.63;;;1.53;;
10523;SDS011;5310;48.638;9.060;2023-07-08T04:40:50;2.03;;;1.70;;
10523;SDS011;5310;48.638;9.060;2023-07-08T04:43:16;1.83;;;1.60;;
10523;SDS011;5310;48.638;9.060;2023-07-08T04:45:43;2.73;;;2.03;;
10523;SDS011;5310;48.638;9.060;2023-07-08T04:48:13;2.83;;;1.90;;
10523;SDS011;5310;48.638;9.060;2023-07-08T04:50:40;2.27;;;1.60;;
10523;SDS011;5310;48.638;9.060;2023-07-08T04:53:07;3.10;;;2.00;;
10523;SDS011;5310;48.638;9.060;2023-07-08T04:55:34;3.20;;;2.10;;
10523;SDS011;5310;48.638;9.060;2023-07-08T04:58:00;2.73;;;1.73;;
10523;SDS011;5310;48.638;9.060;2023-07-08T05:00:27;3.23;;;2.00;;
10523;SDS011;5310;48.638;9.060;2023-07-08T05:02:53;2.33;;;1.70;;
10523;SDS011;5310;48.638;9.060;2023-07-08T05:05:19;3.07;;;1.93;;
10523;SDS011;5310;48.638;9.060;2023-07-08T05:07:45;2.23;;;1.60;;
10523;SDS011;5310;48.638;9.060;2023-07-08T05:10:11;2.43;;;1.67;;
10523;SDS011;5310;48.638;9.060;2023-07-08T05:12:37;3.23;;;2.00;;
10523;SDS011;5310;48.638;9.060;2023-07-08T05:15:03;2.60;;;1.83;;
10523;SDS011;5310;48.638;9.060;2023-07-08T05:17:29;3.03;;;1.88;;
10523;SDS011;5310;48.638;9.060;2023-07-08T05:19:55;2.97;;;1.93;;
10523;SDS011;5310;48.638;9.060;2023-07-08T05:22:25;2.90;;;1.80;;
10523;SDS011;5310;48.638;9.060;2023-07-08T05:24:52;2.40;;;1.65;;
10523;SDS011;5310;48.638;9.060;2023-07-08T05:27:20;2.10;;;1.50;;
10523;SDS011;5310;48.638;9.060;2023-07-08T05:29:46;2.30;;;1.75;;
10523;SDS011;5310;48.638;9.060;2023-07-08T05:32:12;1.60;;;1.40;;
10523;SDS011;5310;48.638;9.060;2023-07-08T05:34:38;1.67;;;1.40;;
10523;SDS011;5310;48.638;9.060;2023-07-08T05:37:04;2.10;;;1.45;;
10523;SDS011;5310;48.638;9.060;2023-07-08T05:39:30;2.13;;;1.55;;
10523;SDS011;5310;48.638;9.060;2023-07-08T05:41:56;1.42;;;1.23;;
10523;SDS011;5310;48.638;9.060;2023-07-08T05:44:22;1.83;;;1.40;;
10523;SDS011;5310;48.638;9.060;2023-07-08T05:46:49;2.25;;;1.60;;
10523;SDS011;5310;48.638;9.060;2023-07-08T05:49:15;1.55;;;1.25;;
10523;SDS011;5310;48.638;9.060;2023-07-08T05:51:41;1.65;;;1.35;;
10523;SDS011;5310;48.638;9.060;2023-07-08T05:54:07;2.67;;;1.70;;
10523;SDS011;5310;48.638;9.060;2023-07-08T05:56:33;2.37;;;1.73;;
10523;SDS011;5310;48.638;9.060;2023-07-08T05:58:59;1.70;;;1.35;;
10523;SDS011;5310;48.638;9.060;2023-07-08T06:01:25;1.23;;;1.13;;
10523;SDS011;5310;48.638;9.060;2023-07-08T06:03:51;1.20;;;1.10;;
10523;SDS011;5310;48.638;9.060;2023-07-08T06:06:17;1.77;;;1.38;;
10523;SDS011;5310;48.638;9.060;2023-07-08T06:08:43;2.40;;;1.65;;
10523;SDS011;5310;48.638;9.060;2023-07-08T06:11:09;2.47;;;1.52;;
10523;SDS011;5310;48.638;9.060;2023-07-08T06:13:35;1.70;;;1.35;;
10523;SDS011;5310;48.638;9.060;2023-07-08T06:16:01;1.65;;;1.33;;
10523;SDS011;5310;48.638;9.060;2023-07-08T06:18:27;1.17;;;1.08;;
10523;SDS011;5310;48.638;9.060;2023-07-08T06:20:53;1.70;;;1.27;;
10523;SDS011;5310;48.638;9.060;2023-07-08T06:23:20;1.15;;;1.05;;
10523;SDS011;5310;48.638;9.060;2023-07-08T06:25:46;1.58;;;1.27;;
10523;SDS011;5310;48.638;9.060;2023-07-08T06:28:12;1.67;;;1.38;;
10523;SDS011;5310;48.638;9.060;2023-07-08T06:30:38;1.58;;;1.20;;
10523;SDS011;5310;48.638;9.060;2023-07-08T06:33:04;1.25;;;1.08;;
10523;SDS011;5310;48.638;9.060;2023-07-08T06:35:30;1.20;;;1.10;;
10523;SDS011;5310;48.638;9.060;2023-07-08T06:37:56;1.35;;;1.15;;
10523;SDS011;5310;48.638;9.060;2023-07-08T06:40:22;1.83;;;1.33;;
10523;SDS011;5310;48.638;9.060;2023-07-08T06:42:48;1.38;;;1.13;;
10523;SDS011;5310;48.638;9.060;2023-07-08T06:45:14;1.35;;;1.17;;
10523;SDS011;5310;48.638;9.060;2023-07-08T06:47:40;1.10;;;0.90;;
10523;SDS011;5310;48.638;9.060;2023-07-08T06:50:06;1.00;;;0.90;;
10523;SDS011;5310;48.638;9.060;2023-07-08T06:52:32;1.52;;;1.20;;
10523;SDS011;5310;48.638;9.060;2023-07-08T06:55:02;1.30;;;0.93;;
10523;SDS011;5310;48.638;9.060;2023-07-08T06:57:33;1.23;;;1.08;;
10523;SDS011;5310;48.638;9.060;2023-07-08T06:59:59;0.77;;;0.77;;
10523;SDS011;5310;48.638;9.060;2023-07-08T07:02:25;1.02;;;0.93;;
10523;SDS011;5310;48.638;9.060;2023-07-08T07:04:51;1.00;;;0.90;;
10523;SDS011;5310;48.638;9.060;2023-07-08T07:07:17;1.58;;;1.30;;
10523;SDS011;5310;48.638;9.060;2023-07-08T07:09:43;1.17;;;1.05;;
10523;SDS011;5310;48.638;9.060;2023-07-08T07:12:09;1.10;;;1.00;;
10523;SDS011;5310;48.638;9.060;2023-07-08T07:14:35;1.00;;;0.90;;
10523;SDS011;5310;48.638;9.060;2023-07-08T07:17:01;1.25;;;1.13;;
10523;SDS011;5310;48.638;9.060;2023-07-08T07:19:27;1.17;;;1.05;;
10523;SDS011;5310;48.638;9.060;2023-07-08T07:21:52;0.95;;;0.90;;
10523;SDS011;5310;48.638;9.060;2023-07-08T07:24:18;1.17;;;1.08;;
10523;SDS011;5310;48.638;9.060;2023-07-08T07:26:44;0.77;;;0.77;;
10523;SDS011;5310;48.638;9.060;2023-07-08T07:29:10;1.10;;;1.00;;
10523;SDS011;5310;48.638;9.060;2023-07-08T07:31:36;1.05;;;0.95;;
10523;SDS011;5310;48.638;9.060;2023-07-08T07:34:04;1.10;;;1.00;;
10523;SDS011;5310;48.638;9.060;2023-07-08T07:36:30;1.00;;;0.90;;
10523;SDS011;5310;48.638;9.060;2023-07-08T07:38:56;0.80;;;0.80;;
10523;SDS011;5310;48.638;9.060;2023-07-08T07:41:22;1.23;;;1.00;;
10523;SDS011;5310;48.638;9.060;2023-07-08T07:43:48;2.05;;;1.30;;
10523;SDS011;5310;48.638;9.060;2023-07-08T07:46:14;1.02;;;0.93;;
10523;SDS011;5310;48.638;9.060;2023-07-08T07:48:40;1.10;;;0.93;;
10523;SDS011;5310;48.638;9.060;2023-07-08T07:51:07;1.88;;;1.25;;
10523;SDS011;5310;48.638;9.060;2023-07-08T07:53:35;1.00;;;0.90;;
10523;SDS011;5310;48.638;9.060;2023-07-08T07:56:01;1.25;;;0.93;;
10523;SDS011;5310;48.638;9.060;2023-07-08T07:58:28;0.80;;;0.80;;
10523;SDS011;5310;48.638;9.060;2023-07-08T08:00:55;1.05;;;0.95;;
10523;SDS011;5310;48.638;9.060;2023-07-08T08:03:21;0.80;;;0.80;;
10523;SDS011;5310;48.638;9.060;2023-07-08T08:05:47;1.00;;;0.90;;
10523;SDS011;5310;48.638;9.060;2023-07-08T08:08:13;1.05;;;0.90;;
10523;SDS011;5310;48.638;9.060;2023-07-08T08:10:39;0.98;;;0.88;;
10523;SDS011;5310;48.638;9.060;2023-07-08T08:13:04;1.00;;;0.90;;
10523;SDS011;5310;48.638;9.060;2023-07-08T08:15:30;1.50;;;1.17;;
10523;SDS011;5310;48.638;9.060;2023-07-08T08:17:56;1.33;;;0.95;;
10523;SDS011;5310;48.638;9.060;2023-07-08T08:20:23;1.05;;;0.93;;
10523;SDS011;5310;48.638;9.060;2023-07-08T08:22:50;1.23;;;1.10;;
10523;SDS011;5310;48.638;9.060;2023-07-08T08:25:16;1.42;;;1.10;;
10523;SDS011;5310;48.638;9.060;2023-07-08T08:27:44;1.05;;;0.95;;
10523;SDS011;5310;48.638;9.060;2023-07-08T08:30:10;1.45;;;1.10;;
10523;SDS011;5310;48.638;9.060;2023-07-08T08:32:36;0.95;;;0.85;;
10523;SDS011;5310;48.638;9.060;2023-07-08T08:35:03;0.70;;;0.70;;
10523;SDS011;5310;48.638;9.060;2023-07-08T08:37:29;1.35;;;1.05;;
10523;SDS011;5310;48.638;9.060;2023-07-08T08:39:55;1.23;;;1.05;;
10523;SDS011;5310;48.638;9.060;2023-07-08T08:42:25;0.93;;;0.80;;
10523;SDS011;5310;48.638;9.060;2023-07-08T08:44:53;1.25;;;1.00;;
10523;SDS011;5310;48.638;9.060;2023-07-08T08:47:26;1.15;;;0.98;;
10523;SDS011;5310;48.638;9.060;2023-07-08T08:49:57;1.58;;;1.17;;
10523;SDS011;5310;48.638;9.060;2023-07-08T08:52:25;1.45;;;1.10;;
10523;SDS011;5310;48.638;9.060;2023-07-08T08:54:50;1.33;;;1.10;;
10523;SDS011;5310;48.638;9.060;2023-07-08T08:57:20;1.73;;;1.20;;
10523;SDS011;5310;48.638;9.060;2023-07-08T08:59:55;1.20;;;1.00;;
10523;SDS011;5310;48.638;9.060;2023-07-08T09:04:52;0.82;;;0.82;;
10523;SDS011;5310;48.638;9.060;2023-07-08T09:07:19;1.70;;;1.27;;
10523;SDS011;5310;48.638;9.060;2023-07-08T09:09:51;1.00;;;0.90;;
10523;SDS011;5310;48.638;9.060;2023-07-08T09:12:48;1.63;;;1.20;;
10523;SDS011;5310;48.638;9.060;2023-07-08T09:15:16;1.02;;;0.93;;
10523;SDS011;5310;48.638;9.060;2023-07-08T09:17:42;1.50;;;1.10;;
10523;SDS011;5310;48.638;9.060;2023-07-08T09:20:20;1.10;;;0.90;;
10523;SDS011;5310;48.638;9.060;2023-07-08T09:22:53;0.82;;;0.77;;
10523;SDS011;5310;48.638;9.060;2023-07-08T09:25:22;1.42;;;1.10;;
10523;SDS011;5310;48.638;9.060;2023-07-08T09:27:52;0.80;;;0.70;;
10523;SDS011;5310;48.638;9.060;2023-07-08T09:30:19;1.10;;;0.93;;
10523;SDS011;5310;48.638;9.060;2023-07-08T09:32:46;1.13;;;0.90;;
10523;SDS011;5310;48.638;9.060;2023-07-08T09:35:57;1.42;;;1.10;;
10523;SDS011;5310;48.638;9.060;2023-07-08T09:38:02;1.02;;;0.90;;
10523;SDS011;5310;48.638;9.060;2023-07-08T09:40:32;0.85;;;0.80;;
10523;SDS011;5310;48.638;9.060;2023-07-08T09:43:13;1.35;;;1.00;;
10523;SDS011;5310;48.638;9.060;2023-07-08T09:45:48;1.15;;;0.98;;
10523;SDS011;5310;48.638;9.060;2023-07-08T09:48:23;1.10;;;0.90;;
10523;SDS011;5310;48.638;9.060;2023-07-08T09:50:51;0.93;;;0.80;;
10523;SDS011;5310;48.638;9.060;2023-07-08T09:53:18;1.67;;;1.20;;
10523;SDS011;5310;48.638;9.060;2023-07-08T09:55:44;1.75;;;1.27;;
10523;SDS011;5310;48.638;9.060;2023-07-08T09:58:15;1.17;;;0.90;;
10523;SDS011;5310;48.638;9.060;2023-07-08T10:00:50;1.25;;;0.98;;
10523;SDS011;5310;48.638;9.060;2023-07-08T10:03:19;1.02;;;0.80;;
10523;SDS011;5310;48.638;9.060;2023-07-08T10:05:47;2.15;;;1.27;;
10523;SDS011;5310;48.638;9.060;2023-07-08T10:08:15;1.45;;;1.05;;
10523;SDS011;5310;48.638;9.060;2023-07-08T10:10:43;1.05;;;0.85;;
10523;SDS011;5310;48.638;9.060;2023-07-08T10:13:20;1.60;;;1.10;;
10523;SDS011;5310;48.638;9.060;2023-07-08T10:15:52;1.40;;;1.02;;
10523;SDS011;5310;48.638;9.060;2023-07-08T10:18:26;1.15;;;0.90;;
10523;SDS011;5310;48.638;9.060;2023-07-08T10:26:10;2.30;;;1.50;;
10523;SDS011;5310;48.638;9.060;2023-07-08T10:31:32;0.98;;;0.85;;
10523;SDS011;5310;48.638;9.060;2023-07-08T10:34:10;1.27;;;1.00;;
10523;SDS011;5310;48.638;9.060;2023-07-08T10:47:29;1.17;;;0.85;;
10523;SDS011;5310;48.638;9.060;2023-07-08T10:49:59;1.13;;;0.90;;
10523;SDS011;5310;48.638;9.060;2023-07-08T10:52:39;1.17;;;0.90;;
10523;SDS011;5310;48.638;9.060;2023-07-08T11:00:58;0.95;;;0.85;;
10523;SDS011;5310;48.638;9.060;2023-07-08T11:03:53;1.35;;;0.93;;
10523;SDS011;5310;48.638;9.060;2023-07-08T11:06:34;0.70;;;0.70;;
10523;SDS011;5310;48.638;9.060;2023-07-08T11:09:04;1.27;;;0.98;;
10523;SDS011;5310;48.638;9.060;2023-07-08T11:11:33;0.95;;;0.82;;
10523;SDS011;5310;48.638;9.060;2023-07-08T11:14:04;1.25;;;1.00;;
10523;SDS011;5310;48.638;9.060;2023-07-08T11:16:35;1.00;;;0.80;;
10523;SDS011;5310;48.638;9.060;2023-07-08T11:19:13;1.52;;;0.90;;
10523;SDS011;5310;48.638;9.060;2023-07-08T11:21:46;1.23;;;1.00;;
10523;SDS011;5310;48.638;9.060;2023-07-08T11:24:25;1.90;;;1.17;;
10523;SDS011;5310;48.638;9.060;2023-07-08T11:27:04;2.60;;;1.38;;
10523;SDS011;5310;48.638;9.060;2023-07-08T11:29:41;0.93;;;0.70;;
10523;SDS011;5310;48.638;9.060;2023-07-08T11:32:12;1.70;;;1.02;;
10523;SDS011;5310;48.638;9.060;2023-07-08T11:34:41;1.02;;;0.75;;
10523;SDS011;5310;48.638;9.060;2023-07-08T11:37:08;2.03;;;1.23;;
10523;SDS011;5310;48.638;9.060;2023-07-08T11:39:39;0.98;;;0.80;;
10523;SDS011;5310;48.638;9.060;2023-07-08T11:42:17;1.40;;;0.93;;
10523;SDS011;5310;48.638;9.060;2023-07-08T11:44:57;1.27;;;0.93;;
10523;SDS011;5310;48.638;9.060;2023-07-08T11:47:32;1.35;;;1.02;;
10523;SDS011;5310;48.638;9.060;2023-07-08T11:49:59;1.40;;;1.00;;
10523;SDS011;5310;48.638;9.060;2023-07-08T11:52:26;2.08;;;1.30;;
10523;SDS011;5310;48.638;9.060;2023-07-08T11:55:00;1.67;;;1.10;;
10523;SDS011;5310;48.638;9.060;2023-07-08T11:57:29;1.55;;;1.08;;
10523;SDS011;5310;48.638;9.060;2023-07-08T12:00:16;1.98;;;1.15;;
10523;SDS011;5310;48.638;9.060;2023-07-08T12:02:48;0.98;;;0.80;;
10523;SDS011;5310;48.638;9.060;2023-07-08T12:05:14;1.38;;;0.90;;
10523;SDS011;5310;48.638;9.060;2023-07-08T12:07:42;1.25;;;0.80;;
10523;SDS011;5310;48.638;9.060;2023-07-08T12:10:13;1.67;;;1.10;;
10523;SDS011;5310;48.638;9.060;2023-07-08T12:12:49;1.50;;;1.02;;
10523;SDS011;5310;48.638;9.060;2023-07-08T12:17:41;1.83;;;1.15;;
10523;SDS011;5310;48.638;9.060;2023-07-08T12:20:19;1.52;;;1.08;;
10523;SDS011;5310;48.638;9.060;2023-07-08T12:23:01;1.55;;;1.10;;
10523;SDS011;5310;48.638;9.060;2023-07-08T12:25:30;1.38;;;0.95;;
10523;SDS011;5310;48.638;9.060;2023-07-08T12:27:57;1.48;;;1.02;;
10523;SDS011;5310;48.638;9.060;2023-07-08T12:30:23;1.20;;;0.90;;
10523;SDS011;5310;48.638;9.060;2023-07-08T12:32:50;0.90;;;0.73;;
10523;SDS011;5310;48.638;9.060;2023-07-08T12:35:18;1.42;;;0.98;;
10523;SDS011;5310;48.638;9.060;2023-07-08T12:37:45;1.60;;;1.03;;
10523;SDS011;5310;48.638;9.060;2023-07-08T12:40:11;1.92;;;1.20;;
10523;SDS011;5310;48.638;9.060;2023-07-08T12:42:37;2.00;;;1.25;;
10523;SDS011;5310;48.638;9.060;2023-07-08T12:45:08;1.00;;;0.82;;
10523;SDS011;5310;48.638;9.060;2023-07-08T12:47:37;1.27;;;0.82;;
10523;SDS011;5310;48.638;9.060;2023-07-08T12:50:03;1.30;;;0.90;;
10523;SDS011;5310;48.638;9.060;2023-07-08T12:52:29;1.58;;;1.05;;
10523;SDS011;5310;48.638;9.060;2023-07-08T12:54:55;1.35;;;0.90;;
10523;SDS011;5310;48.638;9.060;2023-07-08T12:57:21;1.73;;;1.10;;
10523;SDS011;5310;48.638;9.060;2023-07-08T12:59:48;1.35;;;0.95;;
10523;SDS011;5310;48.638;9.060;2023-07-08T13:02:15;1.17;;;0.90;;
10523;SDS011;5310;48.638;9.060;2023-07-08T13:04:44;1.08;;;0.80;;
10523;SDS011;5310;48.638;9.060;2023-07-08T13:10:07;1.05;;;0.70;;
10523;SDS011;5310;48.638;9.060;2023-07-08T13:12:42;1.65;;;1.05;;
10523;SDS011;5310;48.638;9.060;2023-07-08T13:15:11;1.05;;;0.85;;
10523;SDS011;5310;48.638;9.060;2023-07-08T13:17:43;1.52;;;1.00;;
10523;SDS011;5310;48.638;9.060;2023-07-08T13:20:14;1.83;;;1.10;;
10523;SDS011;5310;48.638;9.060;2023-07-08T13:22:41;0.73;;;0.63;;
10523;SDS011;5310;48.638;9.060;2023-07-08T13:25:13;1.38;;;0.95;;
10523;SDS011;5310;48.638;9.060;2023-07-08T13:27:42;0.90;;;0.73;;
10523;SDS011;5310;48.638;9.060;2023-07-08T13:30:16;0.85;;;0.73;;
10523;SDS011;5310;48.638;9.060;2023-07-08T13:32:42;2.55;;;1.50;;
10523;SDS011;5310;48.638;9.060;2023-07-08T13:35:25;2.33;;;1.40;;
10523;SDS011;5310;48.638;9.060;2023-07-08T13:37:52;2.60;;;1.48;;
10523;SDS011;5310;48.638;9.060;2023-07-08T13:40:17;2.15;;;1.25;;
10523;SDS011;5310;48.638;9.060;2023-07-08T13:42:48;2.70;;;1.50;;
10523;SDS011;5310;48.638;9.060;2023-07-08T13:45:15;3.10;;;1.70;;
10523;SDS011;5310;48.638;9.060;2023-07-08T13:47:43;1.83;;;1.13;;
10523;SDS011;5310;48.638;9.060;2023-07-08T13:50:22;1.88;;;1.23;;
10523;SDS011;5310;48.638;9.060;2023-07-08T13:52:55;1.45;;;1.00;;
10523;SDS011;5310;48.638;9.060;2023-07-08T13:55:22;1.65;;;1.13;;
10523;SDS011;5310;48.638;9.060;2023-07-08T13:57:59;2.72;;;1.42;;
10523;SDS011;5310;48.638;9.060;2023-07-08T14:00:26;2.50;;;1.40;;
10523;SDS011;5310;48.638;9.060;2023-07-08T14:02:54;1.92;;;1.15;;
10523;SDS011;5310;48.638;9.060;2023-07-08T14:05:20;1.73;;;1.17;;
10523;SDS011;5310;48.638;9.060;2023-07-08T14:07:46;3.05;;;1.75;;
10523;SDS011;5310;48.638;9.060;2023-07-08T14:10:13;2.10;;;1.35;;
10523;SDS011;5310;48.638;9.060;2023-07-08T14:12:39;3.05;;;1.55;;
10523;SDS011;5310;48.638;9.060;2023-07-08T14:15:06;2.33;;;1.33;;
10523;SDS011;5310;48.638;9.060;2023-07-08T14:17:32;3.85;;;1.77;;
10523;SDS011;5310;48.638;9.060;2023-07-08T14:19:58;2.42;;;1.40;;
10523;SDS011;5310;48.638;9.060;2023-07-08T14:22:25;2.75;;;1.50;;
10523;SDS011;5310;48.638;9.060;2023-07-08T14:24:51;2.10;;;1.13;;
10523;SDS011;5310;48.638;9.060;2023-07-08T14:27:17;1.85;;;1.10;;
10523;SDS011;5310;48.638;9.060;2023-07-08T14:29:46;2.03;;;1.20;;
10523;SDS011;5310;48.638;9.060;2023-07-08T14:32:14;2.47;;;1.40;;
10523;SDS011;5310;48.638;9.060;2023-07-08T14:35:13;2.30;;;1.35;;
10523;SDS011;5310;48.638;9.060;2023-07-08T14:37:41;1.73;;;1.00;;
10523;SDS011;5310;48.638;9.060;2023-07-08T14:40:24;2.72;;;1.50;;
10523;SDS011;5310;48.638;9.060;2023-07-08T14:42:52;3.08;;;1.52;;
10523;SDS011;5310;48.638;9.060;2023-07-08T14:45:21;1.95;;;1.30;;
10523;SDS011;5310;48.638;9.060;2023-07-08T14:47:47;3.35;;;1.80;;
10523;SDS011;5310;48.638;9.060;2023-07-08T14:50:13;2.63;;;1.50;;
10523;SDS011;5310;48.638;9.060;2023-07-08T14:52:40;2.20;;;1.40;;
10523;SDS011;5310;48.638;9.060;2023-07-08T14:55:07;2.13;;;1.35;;
10523;SDS011;5310;48.638;9.060;2023-07-08T14:57:38;1.63;;;1.23;;
10523;SDS011;5310;48.638;9.060;2023-07-08T15:00:06;2.17;;;1.40;;
10523;SDS011;5310;48.638;9.060;2023-07-08T15:02:32;2.22;;;1.48;;
10523;SDS011;5310;48.638;9.060;2023-07-08T15:05:00;1.60;;;1.08;;
10523;SDS011;5310;48.638;9.060;2023-07-08T15:07:26;1.77;;;1.27;;
10523;SDS011;5310;48.638;9.060;2023-07-08T15:09:52;2.10;;;1.40;;
10523;SDS011;5310;48.638;9.060;2023-07-08T15:12:18;1.77;;;1.20;;
10523;SDS011;5310;48.638;9.060;2023-07-08T15:14:44;1.60;;;1.15;;
10523;SDS011;5310;48.638;9.060;2023-07-08T15:17:12;2.45;;;1.50;;
10523;SDS011;5310;48.638;9.060;2023-07-08T15:19:40;2.05;;;1.42;;
10523;SDS011;5310;48.638;9.060;2023-07-08T15:22:06;2.60;;;1.45;;
10523;SDS011;5310;48.638;9.060;2023-07-08T15:24:32;2.65;;;1.40;;
10523;SDS011;5310;48.638;9.060;2023-07-08T15:26:58;3.13;;;1.60;;
10523;SDS011;5310;48.638;9.060;2023-07-08T15:29:24;2.50;;;1.38;;
10523;SDS011;5310;48.638;9.060;2023-07-08T15:31:50;1.90;;;1.15;;
10523;SDS011;5310;48.638;9.060;2023-07-08T15:34:17;2.83;;;1.63;;
10523;SDS011;5310;48.638;9.060;2023-07-08T15:36:45;2.53;;;1.45;;
10523;SDS011;5310;48.638;9.060;2023-07-08T15:39:11;2.55;;;1.48;;
10523;SDS011;5310;48.638;9.060;2023-07-08T15:41:40;2.40;;;1.42;;
10523;SDS011;5310;48.638;9.060;2023-07-08T15:44:10;3.22;;;1.55;;
10523;SDS011;5310;48.638;9.060;2023-07-08T15:46:41;3.78;;;1.83;;
10523;SDS011;5310;48.638;9.060;2023-07-08T15:49:30;2.75;;;1.50;;
10523;SDS011;5310;48.638;9.060;2023-07-08T15:51:55;2.53;;;1.50;;
10523;SDS011;5310;48.638;9.060;2023-07-08T15:54:21;2.10;;;1.35;;
10523;SDS011;5310;48.638;9.060;2023-07-08T15:56:48;2.78;;;1.48;;
10523;SDS011;5310;48.638;9.060;2023-07-08T15:59:16;1.92;;;1.20;;
10523;SDS011;5310;48.638;9.060;2023-07-08T16:01:46;1.52;;;0.93;;
10523;SDS011;5310;48.638;9.060;2023-07-08T16:04:20;2.33;;;1.40;;
10523;SDS011;5310;48.638;9.060;2023-07-08T16:06:47;2.65;;;1.50;;
10523;SDS011;5310;48.638;9.060;2023-07-08T16:09:13;2.30;;;1.45;;
10523;SDS011;5310;48.638;9.060;2023-07-08T16:11:39;3.08;;;1.50;;
10523;SDS011;5310;48.638;9.060;2023-07-08T16:14:05;2.45;;;1.50;;
10523;SDS011;5310;48.638;9.060;2023-07-08T16:16:31;3.10;;;1.58;;
10523;SDS011;5310;48.638;9.060;2023-07-08T16:18:57;2.30;;;1.48;;
10523;SDS011;5310;48.638;9.060;2023-07-08T16:21:23;2.20;;;1.38;;
10523;SDS011;5310;48.638;9.060;2023-07-08T16:23:49;2.63;;;1.42;;
10523;SDS011;5310;48.638;9.060;2023-07-08T16:26:15;2.80;;;1.60;;
10523;SDS011;5310;48.638;9.060;2023-07-08T16:28:43;3.28;;;1.70;;
10523;SDS011;5310;48.638;9.060;2023-07-08T16:31:10;3.08;;;1.52;;
10523;SDS011;5310;48.638;9.060;2023-07-08T16:33:36;1.88;;;1.20;;
10523;SDS011;5310;48.638;9.060;2023-07-08T16:36:02;0.95;;;0.80;;
10523;SDS011;5310;48.638;9.060;2023-07-08T16:38:28;3.25;;;1.77;;
10523;SDS011;5310;48.638;9.060;2023-07-08T16:40:54;4.18;;;2.03;;
10523;SDS011;5310;48.638;9.060;2023-07-08T16:43:24;2.00;;;1.15;;
10523;SDS011;5310;48.638;9.060;2023-07-08T16:45:51;2.63;;;1.38;;
10523;SDS011;5310;48.638;9.060;2023-07-08T16:48:17;3.15;;;1.63;;
10523;SDS011;5310;48.638;9.060;2023-07-08T16:50:43;3.22;;;1.70;;
10523;SDS011;5310;48.638;9.060;2023-07-08T16:53:12;2.58;;;1.45;;
10523;SDS011;5310;48.638;9.060;2023-07-08T16:55:38;3.15;;;1.50;;
10523;SDS011;5310;48.638;9.060;2023-07-08T16:58:04;3.15;;;1.67;;
10523;SDS011;5310;48.638;9.060;2023-07-08T17:00:32;2.10;;;1.30;;
10523;SDS011;5310;48.638;9.060;2023-07-08T17:02:59;2.53;;;1.48;;
10523;SDS011;5310;48.638;9.060;2023-07-08T17:05:29;2.05;;;1.33;;
10523;SDS011;5310;48.638;9.060;2023-07-08T17:07:55;2.70;;;1.58;;
10523;SDS011;5310;48.638;9.060;2023-07-08T17:10:21;2.95;;;1.63;;